Time;durP1;ratioP1;P1;durP2;ratioP2;P2;SDS_P1;SDS_P2;PMS_P1;PMS_P2;Temp;Humidity;BMP_temperature;BMP_pressure;BME280_temperature;BME280_humidity;BME280_pressure;Samples;Min_cycle;Max_cycle;Signal;HPM_P1;HPM_P2
2022/05/28 00:01:46;;;;;;;5.10;1.67;;;;;;;;;;4969146;28;20064;-77
2022/05/28 00:04:13;;;;;;;5.15;1.75;;;;;;;;;;5016310;28;20041;-77
2022/05/28 00:06:38;;;;;;;4.72;1.75;;;;;;;;;;5016630;28;20038;-78
2022/05/28 00:09:04;;;;;;;4.57;1.60;;;;;;;;;;4999841;28;20041;-77
2022/05/28 00:11:35;;;;;;;6.30;2.10;;;;;;;;;;4999822;28;20045;-78
2022/05/28 00:14:01;;;;;;;4.65;2.00;;;;;;;;;;4990948;28;20039;-78
2022/05/28 00:16:26;;;;;;;5.70;1.85;;;;;;;;;;4935479;28;20373;-78
2022/05/28 00:18:52;;;;;;;5.57;1.95;;;;;;;;;;5001875;28;20043;-78
2022/05/28 00:21:17;;;;;;;5.15;1.50;;;;;;;;;;5002636;28;20043;-77
2022/05/28 00:23:46;;;;;;;7.72;2.40;;;;;;;;;;5002630;28;20043;-78
2022/05/28 00:26:11;;;;;;;6.82;2.20;;;;;;;;;;4984897;28;20035;-78
2022/05/28 00:28:37;;;;;;;4.43;1.67;;;;;;;;;;4934844;28;20386;-77
2022/05/28 00:31:02;;;;;;;5.05;1.55;;;;;;;;;;4919686;29;20117;-77
2022/05/28 00:33:30;;;;;;;8.55;2.30;;;;;;;;;;5001829;28;20061;-77
2022/05/28 00:35:56;;;;;;;3.85;1.35;;;;;;;;;;4919859;29;20046;-78
2022/05/28 00:38:24;;;;;;;7.47;2.05;;;;;;;;;;4935700;29;20051;-78
2022/05/28 00:40:51;;;;;;;5.25;2.15;;;;;;;;;;4919625;29;20028;-77
2022/05/28 00:43:16;;;;;;;4.68;1.80;;;;;;;;;;4935091;29;20036;-77
2022/05/28 00:45:42;;;;;;;6.57;1.60;;;;;;;;;;4934952;29;20043;-78
2022/05/28 00:48:07;;;;;;;5.30;1.92;;;;;;;;;;4934650;28;20315;-77
2022/05/28 00:50:33;;;;;;;5.43;2.10;;;;;;;;;;5004078;28;20046;-78
2022/05/28 00:52:59;;;;;;;5.32;1.92;;;;;;;;;;4935362;29;20047;-77
2022/05/28 00:55:24;;;;;;;6.72;2.15;;;;;;;;;;4934774;29;20394;-77
2022/05/28 00:57:50;;;;;;;5.93;1.95;;;;;;;;;;4934820;29;20106;-77
2022/05/28 01:00:18;;;;;;;4.20;1.77;;;;;;;;;;4934803;28;20036;-77
2022/05/28 01:03:13;;;;;;;5.75;2.15;;;;;;;;;;4915767;28;20044;-77
2022/05/28 01:05:48;;;;;;;6.82;1.80;;;;;;;;;;4931555;28;20118;-77
2022/05/28 01:08:18;;;;;;;6.85;1.70;;;;;;;;;;4900292;29;20093;-77
2022/05/28 01:11:05;;;;;;;5.15;1.33;;;;;;;;;;4915987;29;20106;-78
2022/05/28 01:13:35;;;;;;;5.47;1.75;;;;;;;;;;4933546;29;20502;-78
2022/05/28 01:16:15;;;;;;;4.78;2.08;;;;;;;;;;4934403;29;20058;-77
2022/05/28 01:18:52;;;;;;;5.15;2.08;;;;;;;;;;4999736;28;20047;-77
2022/05/28 01:21:56;;;;;;;5.85;1.98;;;;;;;;;;4998928;28;20070;-77
2022/05/28 01:24:41;;;;;;;5.13;1.48;;;;;;;;;;4942501;28;20055;-76
2022/05/28 01:27:09;;;;;;;4.00;1.88;;;;;;;;;;5001066;28;20042;-77
2022/05/28 01:29:54;;;;;;;5.70;2.25;;;;;;;;;;4918437;29;20055;-77
2022/05/28 01:32:20;;;;;;;3.88;1.77;;;;;;;;;;4934523;29;20096;-77
2022/05/28 01:34:45;;;;;;;3.88;2.03;;;;;;;;;;4918496;29;20047;-77
2022/05/28 01:37:11;;;;;;;4.97;1.90;;;;;;;;;;4901804;28;20054;-77
2022/05/28 01:39:37;;;;;;;5.05;2.22;;;;;;;;;;4934291;29;20445;-77
2022/05/28 01:42:02;;;;;;;6.78;2.50;;;;;;;;;;4934664;29;20074;-77
2022/05/28 01:44:28;;;;;;;6.25;2.25;;;;;;;;;;5001323;28;20474;-77
2022/05/28 01:46:53;;;;;;;7.78;3.13;;;;;;;;;;4933086;28;20047;-77
2022/05/28 01:49:19;;;;;;;6.32;2.63;;;;;;;;;;4933962;29;20035;-77
2022/05/28 01:51:53;;;;;;;5.72;2.08;;;;;;;;;;4934308;29;20051;-77
2022/05/28 01:54:24;;;;;;;7.45;2.80;;;;;;;;;;4934100;29;20405;-77
2022/05/28 01:56:51;;;;;;;5.15;2.40;;;;;;;;;;4918251;29;20073;-77
2022/05/28 01:59:22;;;;;;;6.18;2.33;;;;;;;;;;4933927;29;20114;-78
2022/05/28 02:01:48;;;;;;;6.00;2.55;;;;;;;;;;4933688;29;20509;-77
2022/05/28 02:04:13;;;;;;;5.28;2.17;;;;;;;;;;4933920;28;20043;-77
2022/05/28 02:06:40;;;;;;;6.10;2.35;;;;;;;;;;4934309;29;20398;-77
2022/05/28 02:09:12;;;;;;;7.25;2.42;;;;;;;;;;4934066;29;20047;-77
2022/05/28 02:11:49;;;;;;;5.60;2.17;;;;;;;;;;4933589;29;20035;-77
2022/05/28 02:14:19;;;;;;;6.32;2.33;;;;;;;;;;4932967;28;20049;-77
2022/05/28 02:17:24;;;;;;;7.25;2.38;;;;;;;;;;4930576;28;20062;-76
2022/05/28 02:20:04;;;;;;;6.97;2.20;;;;;;;;;;4984974;28;20044;-77
2022/05/28 02:22:45;;;;;;;8.82;2.42;;;;;;;;;;4932002;28;20066;-77
2022/05/28 02:25:18;;;;;;;8.18;3.22;;;;;;;;;;4996082;28;20040;-77
2022/05/28 02:27:43;;;;;;;6.15;2.60;;;;;;;;;;5027631;28;20044;-77
2022/05/28 02:30:10;;;;;;;5.47;2.03;;;;;;;;;;4898773;29;20371;-78
2022/05/28 02:32:35;;;;;;;7.30;2.35;;;;;;;;;;4930683;29;20051;-77
2022/05/28 02:35:01;;;;;;;7.05;2.33;;;;;;;;;;4930386;29;20405;-77
2022/05/28 02:37:26;;;;;;;5.65;2.38;;;;;;;;;;4917430;29;20141;-77
2022/05/28 02:39:52;;;;;;;6.13;2.20;;;;;;;;;;4933411;28;20390;-77
2022/05/28 02:42:17;;;;;;;6.72;2.50;;;;;;;;;;4933595;29;20101;-77
2022/05/28 02:44:43;;;;;;;7.55;2.13;;;;;;;;;;4917759;28;20038;-77
2022/05/28 02:47:09;;;;;;;6.10;2.10;;;;;;;;;;4933387;28;20445;-77
2022/05/28 02:49:35;;;;;;;4.57;2.17;;;;;;;;;;4901896;28;20047;-77
2022/05/28 02:52:01;;;;;;;5.10;1.85;;;;;;;;;;4933607;28;20074;-77
2022/05/28 02:54:27;;;;;;;6.85;2.33;;;;;;;;;;4917615;28;20524;-78
2022/05/28 02:56:52;;;;;;;5.53;1.98;;;;;;;;;;4918185;28;20035;-77
2022/05/28 02:59:18;;;;;;;7.15;2.53;;;;;;;;;;4936199;29;20054;-77
2022/05/28 03:01:43;;;;;;;5.10;2.25;;;;;;;;;;4984636;28;20132;-77
2022/05/28 03:04:09;;;;;;;6.30;2.30;;;;;;;;;;5017670;28;20499;-78
2022/05/28 03:06:37;;;;;;;5.18;2.00;;;;;;;;;;5017487;28;20045;-77
2022/05/28 03:09:04;;;;;;;6.30;1.90;;;;;;;;;;5017802;28;20042;-77
2022/05/28 03:11:29;;;;;;;4.53;1.88;;;;;;;;;;4984854;28;20041;-77
2022/05/28 03:13:55;;;;;;;5.38;2.05;;;;;;;;;;4994529;28;20412;-77
2022/05/28 03:16:20;;;;;;;4.65;1.85;;;;;;;;;;4936388;29;20082;-77
2022/05/28 03:18:46;;;;;;;6.70;2.15;;;;;;;;;;5003323;28;20425;-77
2022/05/28 03:21:11;;;;;;;8.02;2.75;;;;;;;;;;5004129;28;20043;-77
2022/05/28 03:23:37;;;;;;;6.63;1.95;;;;;;;;;;5003699;28;20044;-77
2022/05/28 03:26:12;;;;;;;5.63;2.58;;;;;;;;;;4987252;28;20039;-77
2022/05/28 03:28:38;;;;;;;5.97;1.98;;;;;;;;;;4919985;28;20124;-78
2022/05/28 03:31:03;;;;;;;4.65;1.88;;;;;;;;;;4920523;29;20072;-77
2022/05/28 03:33:29;;;;;;;7.00;2.22;;;;;;;;;;4916587;28;20468;-77
2022/05/28 03:35:54;;;;;;;5.30;1.77;;;;;;;;;;5005364;28;20052;-77
2022/05/28 03:38:20;;;;;;;5.18;1.80;;;;;;;;;;4936223;29;20047;-77
2022/05/28 03:40:45;;;;;;;5.35;2.20;;;;;;;;;;4936005;29;20051;-77
2022/05/28 03:43:10;;;;;;;9.23;2.40;;;;;;;;;;4920097;28;20097;-77
2022/05/28 03:45:36;;;;;;;4.38;1.83;;;;;;;;;;4935948;29;20421;-77
2022/05/28 03:48:02;;;;;;;4.32;1.73;;;;;;;;;;4935655;29;20421;-77
2022/05/28 03:50:28;;;;;;;5.85;2.28;;;;;;;;;;4920218;28;20043;-77
2022/05/28 03:52:53;;;;;;;5.97;1.70;;;;;;;;;;4920138;29;20106;-78
2022/05/28 03:55:19;;;;;;;7.63;2.28;;;;;;;;;;4935851;29;20457;-77
2022/05/28 03:57:46;;;;;;;4.57;1.90;;;;;;;;;;4935294;29;20051;-77
2022/05/28 04:00:12;;;;;;;7.88;2.75;;;;;;;;;;4935818;28;20048;-78
2022/05/28 04:02:37;;;;;;;5.80;1.95;;;;;;;;;;4932499;29;20094;-77
2022/05/28 04:05:04;;;;;;;4.93;1.83;;;;;;;;;;4932295;28;20047;-77
2022/05/28 04:07:29;;;;;;;5.43;1.70;;;;;;;;;;4999581;28;20031;-77
2022/05/28 04:09:54;;;;;;;5.93;1.92;;;;;;;;;;4931738;28;20058;-77
2022/05/28 04:12:20;;;;;;;6.10;2.25;;;;;;;;;;4947924;28;20039;-77
2022/05/28 04:14:46;;;;;;;11.20;2.05;;;;;;;;;;4935374;29;20129;-78
2022/05/28 04:17:11;;;;;;;6.85;2.35;;;;;;;;;;4919732;28;20405;-77
2022/05/28 04:19:37;;;;;;;5.28;1.90;;;;;;;;;;5018845;28;20039;-77
2022/05/28 04:22:03;;;;;;;7.82;1.88;;;;;;;;;;4919749;29;20512;-77
2022/05/28 04:24:29;;;;;;;5.88;1.88;;;;;;;;;;4935148;28;20122;-77
2022/05/28 04:26:54;;;;;;;5.30;2.22;;;;;;;;;;4918476;28;20420;-77
2022/05/28 04:29:20;;;;;;;6.53;2.20;;;;;;;;;;4935112;29;20051;-78
2022/05/28 04:31:45;;;;;;;5.03;1.75;;;;;;;;;;4934842;29;20409;-77
2022/05/28 04:34:11;;;;;;;6.57;1.80;;;;;;;;;;4934735;29;20043;-77
2022/05/28 04:36:36;;;;;;;5.63;2.00;;;;;;;;;;4946017;28;20066;-77
2022/05/28 04:39:02;;;;;;;6.63;2.42;;;;;;;;;;4954331;28;20043;-78
2022/05/28 04:41:27;;;;;;;6.03;2.97;;;;;;;;;;4953920;28;20112;-77
2022/05/28 04:43:53;;;;;;;4.72;1.63;;;;;;;;;;4954182;28;20043;-77
2022/05/28 04:46:18;;;;;;;6.97;2.60;;;;;;;;;;4954640;28;20039;-77
2022/05/28 04:48:44;;;;;;;7.68;2.10;;;;;;;;;;4953922;28;20527;-77
2022/05/28 04:51:09;;;;;;;5.35;2.33;;;;;;;;;;4954242;28;20054;-77
2022/05/28 04:53:35;;;;;;;7.10;2.05;;;;;;;;;;4954423;28;20575;-77
2022/05/28 04:56:01;;;;;;;4.57;1.85;;;;;;;;;;4954376;28;20382;-77
2022/05/28 04:58:29;;;;;;;5.60;1.95;;;;;;;;;;4953912;28;20126;-77
2022/05/28 05:00:55;;;;;;;13.13;2.53;;;;;;;;;;5014083;28;20056;-78
2022/05/28 05:03:20;;;;;;;16.40;3.38;;;;;;;;;;5015402;28;20504;-79
2022/05/28 05:05:46;;;;;;;14.40;2.67;;;;;;;;;;4999010;28;20578;-78
2022/05/28 05:08:11;;;;;;;28.15;4.00;;;;;;;;;;5029794;28;20049;-79
2022/05/28 05:10:37;;;;;;;16.92;4.28;;;;;;;;;;5012916;28;20454;-78
2022/05/28 05:13:02;;;;;;;17.48;3.40;;;;;;;;;;5013032;28;20069;-79
2022/05/28 05:15:28;;;;;;;14.40;3.03;;;;;;;;;;4957076;28;20043;-79
2022/05/28 05:17:53;;;;;;;12.20;2.85;;;;;;;;;;4934414;28;20498;-79
2022/05/28 05:20:19;;;;;;;11.70;2.95;;;;;;;;;;4912602;28;20043;-79
2022/05/28 05:22:45;;;;;;;7.63;2.50;;;;;;;;;;5009241;28;20047;-79
2022/05/28 05:25:11;;;;;;;8.55;2.40;;;;;;;;;;4932747;29;20043;-80
2022/05/28 05:27:36;;;;;;;9.43;2.80;;;;;;;;;;5015533;28;20035;-79
2022/05/28 05:30:02;;;;;;;11.57;2.80;;;;;;;;;;4932630;28;20039;-78
2022/05/28 05:32:27;;;;;;;10.02;3.78;;;;;;;;;;4933433;28;20069;-79
2022/05/28 05:34:53;;;;;;;8.65;2.40;;;;;;;;;;4983846;28;20065;-79
2022/05/28 05:37:18;;;;;;;10.15;2.47;;;;;;;;;;5000366;28;20066;-79
2022/05/28 05:39:44;;;;;;;10.15;3.15;;;;;;;;;;5001052;28;20036;-79
2022/05/28 05:42:10;;;;;;;13.15;3.05;;;;;;;;;;4934087;28;20050;-78
2022/05/28 05:44:36;;;;;;;13.95;3.30;;;;;;;;;;5000926;28;20075;-76
2022/05/28 05:47:01;;;;;;;16.00;4.65;;;;;;;;;;4918138;28;20039;-77
2022/05/28 05:49:27;;;;;;;15.95;3.28;;;;;;;;;;4933981;29;20102;-76
2022/05/28 05:51:52;;;;;;;9.75;2.90;;;;;;;;;;4933985;29;20122;-76
2022/05/28 05:54:19;;;;;;;14.90;3.40;;;;;;;;;;4934253;29;20039;-77
2022/05/28 05:56:44;;;;;;;9.95;4.57;;;;;;;;;;4918456;28;20043;-77
2022/05/28 05:59:10;;;;;;;11.63;3.88;;;;;;;;;;5000723;28;20055;-77
2022/05/28 06:01:35;;;;;;;18.90;5.50;;;;;;;;;;4933913;29;20066;-77
2022/05/28 06:04:01;;;;;;;9.77;3.72;;;;;;;;;;4918530;28;20449;-77
2022/05/28 06:06:26;;;;;;;12.80;5.55;;;;;;;;;;4917989;29;20409;-77
2022/05/28 06:08:52;;;;;;;10.98;4.30;;;;;;;;;;4949969;29;20391;-77
2022/05/28 06:11:17;;;;;;;16.10;5.80;;;;;;;;;;5001022;28;20032;-77
2022/05/28 06:13:43;;;;;;;14.65;5.60;;;;;;;;;;4917768;29;20050;-78
2022/05/28 06:16:08;;;;;;;13.80;5.30;;;;;;;;;;4983128;28;20042;-77
2022/05/28 06:18:34;;;;;;;15.82;4.93;;;;;;;;;;4917908;29;20127;-77
2022/05/28 06:20:59;;;;;;;13.07;5.20;;;;;;;;;;4933758;29;20132;-78
2022/05/28 06:23:25;;;;;;;11.90;4.75;;;;;;;;;;4918172;28;20522;-78
2022/05/28 06:25:51;;;;;;;8.60;3.83;;;;;;;;;;4918111;29;20031;-77
2022/05/28 06:28:16;;;;;;;8.10;3.60;;;;;;;;;;4967592;28;20038;-78
2022/05/28 06:30:44;;;;;;;10.65;3.60;;;;;;;;;;5000597;28;20031;-78
2022/05/28 06:33:10;;;;;;;8.80;2.85;;;;;;;;;;4918214;28;20050;-78
2022/05/28 06:35:35;;;;;;;12.43;2.90;;;;;;;;;;4920141;28;20042;-78
2022/05/28 06:38:01;;;;;;;8.55;2.63;;;;;;;;;;4936877;28;20039;-78
2022/05/28 06:40:27;;;;;;;12.50;2.97;;;;;;;;;;4952864;28;20412;-77
2022/05/28 06:42:54;;;;;;;5.90;2.33;;;;;;;;;;5019795;28;20030;-78
2022/05/28 06:45:19;;;;;;;7.90;1.98;;;;;;;;;;4952930;28;20114;-78
2022/05/28 06:47:45;;;;;;;7.20;1.70;;;;;;;;;;4952557;28;20053;-77
2022/05/28 06:52:56;;;;;;;5.88;2.45;;;;;;;;;;4955300;28;20569;-78
2022/05/28 06:55:22;;;;;;;5.93;1.63;;;;;;;;;;4952541;28;20126;-78
2022/05/28 06:57:47;;;;;;;5.38;1.35;;;;;;;;;;4952206;28;20043;-78
2022/05/28 07:00:13;;;;;;;7.40;1.67;;;;;;;;;;4952820;28;20043;-77
2022/05/28 07:02:39;;;;;;;17.85;2.15;;;;;;;;;;5000859;28;20067;-78
2022/05/28 07:05:04;;;;;;;18.30;3.40;;;;;;;;;;5016413;28;20062;-78
2022/05/28 07:07:30;;;;;;;12.68;3.15;;;;;;;;;;4999983;28;20398;-77
2022/05/28 07:09:55;;;;;;;52.53;5.25;;;;;;;;;;4977610;28;20115;-77
2022/05/28 07:12:21;;;;;;;25.83;4.45;;;;;;;;;;4996859;28;20517;-78
2022/05/28 07:14:46;;;;;;;30.90;3.45;;;;;;;;;;5008842;28;20039;-78
2022/05/28 07:17:12;;;;;;;39.15;5.10;;;;;;;;;;4932950;29;20433;-78
2022/05/28 07:19:37;;;;;;;27.95;3.78;;;;;;;;;;4917233;29;20065;-78
2022/05/28 07:22:03;;;;;;;10.55;4.28;;;;;;;;;;5016445;28;20043;-79
2022/05/28 07:24:28;;;;;;;16.00;3.80;;;;;;;;;;5000015;28;20431;-78
2022/05/28 07:26:53;;;;;;;10.07;3.95;;;;;;;;;;4948588;28;20464;-78
2022/05/28 07:29:19;;;;;;;11.68;4.63;;;;;;;;;;4916882;29;20403;-78
2022/05/28 07:31:45;;;;;;;11.35;4.38;;;;;;;;;;4933084;29;20051;-78
2022/05/28 07:34:11;;;;;;;8.30;2.80;;;;;;;;;;4917112;29;20552;-78
2022/05/28 07:36:37;;;;;;;10.88;3.05;;;;;;;;;;4994252;28;20134;-78
2022/05/28 07:39:02;;;;;;;6.50;2.58;;;;;;;;;;4952112;28;20456;-78
2022/05/28 07:41:28;;;;;;;8.10;2.75;;;;;;;;;;4951988;28;20125;-78
2022/05/28 07:43:54;;;;;;;7.38;1.52;;;;;;;;;;4952692;28;20041;-78
2022/05/28 07:46:25;;;;;;;4.38;0.95;;;;;;;;;;5006630;28;20595;-78
2022/05/28 07:48:51;;;;;;;7.28;1.55;;;;;;;;;;4954629;28;20420;-78
2022/05/28 07:51:16;;;;;;;8.15;1.33;;;;;;;;;;4955613;28;20049;-78
2022/05/28 07:53:42;;;;;;;7.32;1.15;;;;;;;;;;4955125;28;20074;-77
2022/05/28 07:56:07;;;;;;;8.90;1.30;;;;;;;;;;5023018;28;20525;-77
2022/05/28 07:58:33;;;;;;;8.02;1.58;;;;;;;;;;4954877;28;20074;-78
2022/05/28 08:00:59;;;;;;;6.05;1.33;;;;;;;;;;4949980;29;20092;-78
2022/05/28 08:03:24;;;;;;;7.85;1.23;;;;;;;;;;5002143;28;20046;-78
2022/05/28 08:05:50;;;;;;;5.88;0.98;;;;;;;;;;4920070;28;20421;-78
2022/05/28 08:08:16;;;;;;;8.32;1.20;;;;;;;;;;4951738;28;20105;-78
2022/05/28 08:10:42;;;;;;;6.35;1.40;;;;;;;;;;4904335;28;20462;-78
2022/05/28 08:13:10;;;;;;;3.75;1.15;;;;;;;;;;4935508;29;20052;-78
2022/05/28 08:15:37;;;;;;;5.30;1.42;;;;;;;;;;4935591;28;20540;-78
2022/05/28 08:18:03;;;;;;;4.75;1.10;;;;;;;;;;4934121;28;20383;-78
2022/05/28 08:23:12;;;;;;;3.63;0.95;;;;;;;;;;4951020;29;20607;-78
2022/05/28 08:25:39;;;;;;;6.78;1.23;;;;;;;;;;4935351;28;20044;-77
2022/05/28 08:28:08;;;;;;;4.25;0.98;;;;;;;;;;4935271;28;20035;-77
2022/05/28 08:30:34;;;;;;;5.78;0.93;;;;;;;;;;4935500;29;20050;-77
2022/05/28 08:32:59;;;;;;;3.28;0.90;;;;;;;;;;4985441;28;20027;-77
2022/05/28 08:35:25;;;;;;;9.98;4.38;;;;;;;;;;5003459;28;20105;-78
2022/05/28 08:37:50;;;;;;;28.80;17.27;;;;;;;;;;4954454;28;20105;-78
2022/05/28 08:40:16;;;;;;;17.85;10.75;;;;;;;;;;5021986;28;20043;-78
2022/05/28 08:42:41;;;;;;;39.58;23.60;;;;;;;;;;4954701;28;20451;-77
2022/05/28 08:45:07;;;;;;;30.85;17.58;;;;;;;;;;4954352;28;20053;-77
2022/05/28 08:47:35;;;;;;;25.38;15.63;;;;;;;;;;4953952;28;20390;-77
2022/05/28 08:50:01;;;;;;;19.70;11.30;;;;;;;;;;4938483;28;20050;-77
2022/05/28 08:52:29;;;;;;;19.63;11.48;;;;;;;;;;4938582;28;20039;-77
2022/05/28 08:55:00;;;;;;;19.15;10.20;;;;;;;;;;4954171;28;20251;-77
2022/05/28 08:57:34;;;;;;;13.32;7.55;;;;;;;;;;4938549;28;20074;-77
2022/05/28 09:00:02;;;;;;;8.63;4.70;;;;;;;;;;4933602;28;20097;-77
2022/05/28 09:02:39;;;;;;;8.05;3.13;;;;;;;;;;4990642;28;20117;-77
2022/05/28 09:05:07;;;;;;;4.88;1.98;;;;;;;;;;5015564;28;20052;-77
2022/05/28 09:07:33;;;;;;;6.75;2.63;;;;;;;;;;5015250;28;20037;-77
2022/05/28 09:09:58;;;;;;;9.00;2.47;;;;;;;;;;5015269;28;20567;-77
2022/05/28 09:12:25;;;;;;;4.68;1.58;;;;;;;;;;5014829;28;20036;-77
2022/05/28 09:14:51;;;;;;;4.85;1.98;;;;;;;;;;4961773;28;20067;-77
2022/05/28 09:17:31;;;;;;;6.57;1.67;;;;;;;;;;4931214;28;20529;-77
2022/05/28 09:20:21;;;;;;;2.95;1.10;;;;;;;;;;5036271;28;20044;-77
2022/05/28 09:22:47;;;;;;;3.70;1.27;;;;;;;;;;5035079;28;20045;-77
2022/05/28 09:25:14;;;;;;;4.00;1.10;;;;;;;;;;5001439;28;20078;-77
2022/05/28 09:27:48;;;;;;;5.15;1.23;;;;;;;;;;5000135;28;20062;-77
2022/05/28 09:30:24;;;;;;;4.97;1.40;;;;;;;;;;4951853;29;20055;-78
2022/05/28 09:33:02;;;;;;;5.53;1.20;;;;;;;;;;4935482;28;20042;-77
2022/05/28 09:36:01;;;;;;;2.47;0.80;;;;;;;;;;4952456;28;20043;-77
2022/05/28 09:38:36;;;;;;;4.13;0.70;;;;;;;;;;4953340;28;20513;-78
2022/05/28 09:41:04;;;;;;;3.58;1.10;;;;;;;;;;5021200;28;20046;-78
2022/05/28 09:43:58;;;;;;;3.28;0.98;;;;;;;;;;4970471;28;20042;-78
2022/05/28 09:46:52;;;;;;;2.97;0.88;;;;;;;;;;4953235;28;20096;-78
2022/05/28 09:49:23;;;;;;;2.63;0.85;;;;;;;;;;4961485;28;20046;-77
2022/05/28 09:51:54;;;;;;;3.35;0.77;;;;;;;;;;4953510;28;20042;-78
2022/05/28 09:54:23;;;;;;;5.93;0.70;;;;;;;;;;4955269;28;20035;-78
2022/05/28 09:57:00;;;;;;;3.50;0.57;;;;;;;;;;5012751;28;20110;-78
2022/05/28 09:59:29;;;;;;;3.20;0.60;;;;;;;;;;4980705;28;20127;-78
2022/05/28 10:02:01;;;;;;;3.25;0.90;;;;;;;;;;4944768;28;20047;-78
2022/05/28 10:04:29;;;;;;;;;;;;;;;;;;4934441;29;20391;-78
2022/05/28 10:06:56;;;;;;;2.92;0.63;;;;;;;;;;4950441;29;19925;-78
2022/05/28 10:09:30;;;;;;;1.95;0.57;;;;;;;;;;4934179;29;20047;-78
2022/05/28 10:12:00;;;;;;;1.77;0.40;;;;;;;;;;4949927;29;20039;-78
2022/05/28 10:14:30;;;;;;;2.13;0.70;;;;;;;;;;4949608;29;20146;-78
2022/05/28 10:17:00;;;;;;;5.00;0.68;;;;;;;;;;4949620;29;20088;-78
2022/05/28 10:19:35;;;;;;;3.75;1.05;;;;;;;;;;4917805;28;20041;-77
2022/05/28 10:22:04;;;;;;;2.17;0.77;;;;;;;;;;4933855;29;20128;-78
2022/05/28 10:24:44;;;;;;;5.07;0.70;;;;;;;;;;4949661;29;20046;-77
2022/05/28 10:27:29;;;;;;;1.52;0.40;;;;;;;;;;4917340;29;20035;-78
2022/05/28 10:29:57;;;;;;;1.88;0.35;;;;;;;;;;4934306;28;20047;-78
2022/05/28 10:32:31;;;;;;;2.25;0.45;;;;;;;;;;4918379;28;20035;-78
2022/05/28 10:34:58;;;;;;;2.55;0.80;;;;;;;;;;4949405;29;20050;-78
2022/05/28 10:37:24;;;;;;;1.13;0.30;;;;;;;;;;4933656;28;20525;-78
2022/05/28 10:39:49;;;;;;;2.67;0.43;;;;;;;;;;4933707;29;20058;-78
2022/05/28 10:42:16;;;;;;;3.22;0.68;;;;;;;;;;4949224;29;20508;-77
2022/05/28 10:44:42;;;;;;;1.73;0.43;;;;;;;;;;4918113;28;20051;-78
2022/05/28 10:47:13;;;;;;;1.75;0.40;;;;;;;;;;4933423;28;20039;-78
2022/05/28 10:49:57;;;;;;;2.33;0.30;;;;;;;;;;4932920;28;20126;-78
2022/05/28 10:52:32;;;;;;;2.10;0.40;;;;;;;;;;4949576;28;20044;-78
2022/05/28 10:55:11;;;;;;;1.95;0.50;;;;;;;;;;4949291;28;20070;-78
2022/05/28 10:57:47;;;;;;;1.55;0.32;;;;;;;;;;4916839;29;20527;-78
2022/05/28 11:00:15;;;;;;;1.35;0.40;;;;;;;;;;4933539;29;20583;-77
2022/05/28 11:03:03;;;;;;;1.02;0.17;;;;;;;;;;4979093;28;20058;-78
2022/05/28 11:05:53;;;;;;;2.15;0.30;;;;;;;;;;4930201;28;20044;-78
2022/05/28 11:08:35;;;;;;;1.63;0.20;;;;;;;;;;4930072;28;20054;-78
2022/05/28 11:11:27;;;;;;;1.53;0.30;;;;;;;;;;4913957;28;20031;-78
2022/05/28 11:14:33;;;;;;;2.33;0.63;;;;;;;;;;4929946;29;20032;-78
2022/05/28 11:17:36;;;;;;;3.20;0.38;;;;;;;;;;4952991;28;20074;-78
2022/05/28 11:20:10;;;;;;;2.40;0.20;;;;;;;;;;4932193;29;20048;-78
2022/05/28 11:22:43;;;;;;;1.13;0.30;;;;;;;;;;4933226;28;20058;-78
2022/05/28 11:25:31;;;;;;;1.90;0.30;;;;;;;;;;4933137;29;20504;-78
2022/05/28 11:28:33;;;;;;;2.00;0.40;;;;;;;;;;4934171;28;20052;-78
2022/05/28 11:31:08;;;;;;;1.80;0.20;;;;;;;;;;4934432;28;20541;-78
2022/05/28 11:33:37;;;;;;;3.67;0.47;;;;;;;;;;4932977;29;20043;-78
2022/05/28 11:36:10;;;;;;;2.03;0.30;;;;;;;;;;4917256;28;20379;-78
2022/05/28 11:38:44;;;;;;;2.42;0.43;;;;;;;;;;4933105;29;20048;-78
2022/05/28 11:41:17;;;;;;;1.83;0.38;;;;;;;;;;4999964;28;20044;-77
2022/05/28 11:43:44;;;;;;;2.33;0.25;;;;;;;;;;4948818;29;20093;-79
2022/05/28 11:46:14;;;;;;;1.65;0.40;;;;;;;;;;4952225;28;20039;-78
2022/05/28 11:51:49;;;;;;;1.42;0.38;;;;;;;;;;4952160;28;20046;-78
2022/05/28 11:54:15;;;;;;;1.70;0.22;;;;;;;;;;4935922;28;20050;-78
2022/05/28 11:56:40;;;;;;;0.85;0.10;;;;;;;;;;4936026;28;20043;-78
2022/05/28 11:59:13;;;;;;;1.85;0.50;;;;;;;;;;4919882;29;20066;-78
2022/05/28 12:01:45;;;;;;;2.25;0.30;;;;;;;;;;4980609;28;20052;-78
2022/05/28 12:04:10;;;;;;;0.98;0.10;;;;;;;;;;5016576;28;20867;-78
2022/05/28 12:06:38;;;;;;;2.53;0.30;;;;;;;;;;5016767;28;20045;-78
2022/05/28 12:09:25;;;;;;;2.58;0.25;;;;;;;;;;5016224;28;20049;-78
2022/05/28 12:12:19;;;;;;;1.75;0.30;;;;;;;;;;4999823;28;20108;-78
2022/05/28 12:14:47;;;;;;;2.08;0.30;;;;;;;;;;5016295;28;20095;-78
2022/05/28 12:17:19;;;;;;;1.88;0.30;;;;;;;;;;5016438;28;20104;-78
2022/05/28 12:19:52;;;;;;;1.13;0.25;;;;;;;;;;5016248;28;20045;-78
2022/05/28 12:22:21;;;;;;;0.93;0.20;;;;;;;;;;5016356;28;20034;-78
2022/05/28 12:24:55;;;;;;;1.73;0.38;;;;;;;;;;4999668;28;20041;-79
2022/05/28 12:27:22;;;;;;;1.02;0.20;;;;;;;;;;4951657;28;20055;-78
2022/05/28 12:30:00;;;;;;;1.42;0.15;;;;;;;;;;4935256;29;20118;-78
2022/05/28 12:32:41;;;;;;;1.58;0.20;;;;;;;;;;4935646;28;20043;-78
2022/05/28 12:35:15;;;;;;;1.50;0.30;;;;;;;;;;4921614;28;20046;-78
2022/05/28 12:37:59;;;;;;;1.48;0.25;;;;;;;;;;4947191;28;20161;-78
2022/05/28 12:40:44;;;;;;;1.83;0.50;;;;;;;;;;4935408;28;20043;-78
2022/05/28 12:43:26;;;;;;;1.92;0.38;;;;;;;;;;4951032;29;20046;-78
2022/05/28 12:45:52;;;;;;;0.73;0.30;;;;;;;;;;4919661;28;20035;-78
2022/05/28 12:48:33;;;;;;;1.92;0.20;;;;;;;;;;4919104;28;20050;-78
2022/05/28 12:51:18;;;;;;;1.10;0.32;;;;;;;;;;4935298;28;20035;-78
2022/05/28 12:53:53;;;;;;;2.40;0.50;;;;;;;;;;4952390;29;20078;-78
2022/05/28 12:56:34;;;;;;;0.80;0.10;;;;;;;;;;4935052;28;20089;-78
2022/05/28 12:59:16;;;;;;;0.85;0.20;;;;;;;;;;4951873;29;20145;-78
2022/05/28 13:02:11;;;;;;;1.65;0.28;;;;;;;;;;4981390;28;20474;-78
2022/05/28 13:04:40;;;;;;;1.67;0.30;;;;;;;;;;4993811;28;20053;-78
2022/05/28 13:07:06;;;;;;;0.93;0.32;;;;;;;;;;5015030;28;20037;-78
2022/05/28 13:09:31;;;;;;;1.33;0.20;;;;;;;;;;4982619;28;20044;-78
2022/05/28 13:12:12;;;;;;;1.38;0.65;;;;;;;;;;5015395;28;20033;-78
2022/05/28 13:15:03;;;;;;;0.70;0.20;;;;;;;;;;5015091;28;20046;-79
2022/05/28 13:17:34;;;;;;;1.60;0.40;;;;;;;;;;5015080;28;20041;-78
2022/05/28 13:20:29;;;;;;;2.42;0.32;;;;;;;;;;5015042;28;20052;-78
2022/05/28 13:23:09;;;;;;;1.00;0.30;;;;;;;;;;5031550;28;20145;-78
2022/05/28 13:25:53;;;;;;;2.05;0.70;;;;;;;;;;5010129;28;20049;-78
2022/05/28 13:28:22;;;;;;;2.42;0.30;;;;;;;;;;5018043;28;20390;-78
2022/05/28 13:30:57;;;;;;;1.15;0.20;;;;;;;;;;4930954;29;20098;-78
2022/05/28 13:33:22;;;;;;;0.65;0.20;;;;;;;;;;4931506;28;20406;-78
2022/05/28 13:35:58;;;;;;;1.38;0.35;;;;;;;;;;4938432;28;20489;-78
2022/05/28 13:38:29;;;;;;;0.77;0.25;;;;;;;;;;4938038;28;20071;-78
2022/05/28 13:40:55;;;;;;;1.17;0.30;;;;;;;;;;4952903;28;20035;-77
2022/05/28 13:43:23;;;;;;;0.90;0.22;;;;;;;;;;4953018;28;20127;-78
2022/05/28 13:45:49;;;;;;;1.40;0.20;;;;;;;;;;4953573;28;20039;-78
2022/05/28 13:48:22;;;;;;;1.35;0.28;;;;;;;;;;5020528;28;20123;-78
2022/05/28 13:50:47;;;;;;;0.75;0.15;;;;;;;;;;4953144;28;20031;-78
2022/05/28 13:53:15;;;;;;;1.17;0.20;;;;;;;;;;4953659;28;20034;-78
2022/05/28 13:55:42;;;;;;;2.28;0.40;;;;;;;;;;4953547;28;20120;-78
2022/05/28 13:58:23;;;;;;;1.27;0.10;;;;;;;;;;4953216;28;20070;-78
2022/05/28 14:01:29;;;;;;;2.13;0.30;;;;;;;;;;4946797;28;20119;-78
2022/05/28 14:03:55;;;;;;;1.45;0.35;;;;;;;;;;4930862;28;20050;-78
2022/05/28 14:06:28;;;;;;;1.52;0.30;;;;;;;;;;4997261;28;20126;-78
2022/05/28 14:08:56;;;;;;;1.38;0.50;;;;;;;;;;4981497;28;20040;-78
2022/05/28 14:11:27;;;;;;;2.03;0.45;;;;;;;;;;4981394;28;20122;-79
2022/05/28 14:14:14;;;;;;;1.60;0.27;;;;;;;;;;4997026;28;20052;-78
2022/05/28 14:16:41;;;;;;;2.22;0.30;;;;;;;;;;4914628;28;20703;-78
2022/05/28 14:19:08;;;;;;;3.55;0.73;;;;;;;;;;4980614;28;20050;-78
2022/05/28 14:21:36;;;;;;;1.40;0.20;;;;;;;;;;4914898;29;20109;-78
2022/05/28 14:24:37;;;;;;;1.10;0.22;;;;;;;;;;4997512;28;20510;-78
2022/05/28 14:27:08;;;;;;;1.88;0.20;;;;;;;;;;4963926;28;20047;-78
2022/05/28 14:29:36;;;;;;;2.22;0.43;;;;;;;;;;4949692;28;20067;-78
2022/05/28 14:32:03;;;;;;;3.45;0.40;;;;;;;;;;4917685;28;20100;-78
2022/05/28 14:34:29;;;;;;;1.50;0.30;;;;;;;;;;4933638;29;20042;-78
2022/05/28 14:36:58;;;;;;;1.73;0.45;;;;;;;;;;4917736;29;20409;-77
2022/05/28 14:39:23;;;;;;;1.92;0.40;;;;;;;;;;4933599;29;20045;-78
2022/05/28 14:41:53;;;;;;;1.10;0.20;;;;;;;;;;4933642;28;20039;-77
2022/05/28 14:44:20;;;;;;;1.17;0.15;;;;;;;;;;4933597;29;20093;-78
2022/05/28 14:46:46;;;;;;;3.40;0.63;;;;;;;;;;4933532;28;20053;-78
2022/05/28 14:49:22;;;;;;;2.20;0.45;;;;;;;;;;4917495;29;20039;-78
2022/05/28 14:51:47;;;;;;;1.65;0.43;;;;;;;;;;4902181;28;20126;-77
2022/05/28 14:54:33;;;;;;;4.47;0.95;;;;;;;;;;4920578;28;20451;-78
2022/05/28 14:57:01;;;;;;;0.75;0.20;;;;;;;;;;4936520;28;20421;-77
2022/05/28 14:59:39;;;;;;;3.13;0.38;;;;;;;;;;4936830;28;20568;-78
2022/05/28 15:02:18;;;;;;;2.15;0.20;;;;;;;;;;4937167;28;20097;-77
2022/05/28 15:04:43;;;;;;;1.63;0.25;;;;;;;;;;4936489;28;20532;-78
2022/05/28 15:07:25;;;;;;;0.63;0.15;;;;;;;;;;5003881;28;20047;-77